This is the latest recevied weather packets stored in our database for station/object IU2EVW-13. If no packets are shown the sender has not sent any weather packets the latest 10 day(s).
| Time | Temp. | Humidity | Pressure | Rain* | Wind** | Luminosity | Snow |
|---|---|---|---|---|---|---|---|
| 1777931935 | 12.22° C | 51% | 1018.3 hPa | - | - | - | - |
| 1777930734 | 12.22° C | 50% | 1018.4 hPa | - | - | - | - |
| 1777929532 | 12.78° C | 48% | 1018.5 hPa | - | - | - | - |
| 1777928333 | 13.33° C | 47% | 1018.6 hPa | - | - | - | - |
| 1777927130 | 13.33° C | 46% | 1018.4 hPa | - | - | - | - |
| 1777925928 | 13.33° C | 45% | 1018.5 hPa | - | - | - | - |
| 1777924727 | 13.89° C | 45% | 1018.3 hPa | - | - | - | - |
| 1777923526 | 14.44° C | 43% | 1018.1 hPa | - | - | - | - |
| 1777922325 | 14.44° C | 43% | 1018 hPa | - | - | - | - |
| 1777921123 | 15° C | 41% | 1017.8 hPa | - | - | - | - |
| 1777919921 | 15° C | 43% | 1017.6 hPa | - | - | - | - |
| 1777918720 | 15.56° C | 40% | 1017.6 hPa | - | - | - | - |
| 1777917519 | 16.11° C | 37% | 1017.6 hPa | - | - | - | - |
| 1777916317 | 16.67° C | 38% | 1017.6 hPa | - | - | - | - |
| 1777915116 | 17.22° C | 36% | 1017.5 hPa | - | - | - | - |
| 1777913915 | 17.78° C | 36% | 1017.4 hPa | - | - | - | - |
| 1777912713 | 19.44° C | 32% | 1017.2 hPa | - | - | - | - |
| 1777911512 | 22.78° C | 27% | 1017.3 hPa | - | - | - | - |
| 1777910311 | 20.56° C | 33% | 1017.5 hPa | - | - | - | - |
| 1777909109 | 19.44° C | 33% | 1017.6 hPa | - | - | - | - |
| 1777907908 | 20° C | 33% | 1017.8 hPa | - | - | - | - |
| 1777906706 | 20.56° C | 35% | 1017.9 hPa | - | - | - | - |
| 1777905504 | 20.56° C | 32% | 1018.1 hPa | - | - | - | - |
| 1777904303 | 18.89° C | 43% | 1018.2 hPa | - | - | - | - |
| 1777903101 | 17.78° C | 40% | 1018.7 hPa | - | - | - | - |
* Rain since midnight (hover to see other rain measurements)
** Current wind speed in m/s (hover to see current wind gust speed)